Time;durP1;ratioP1;P1;durP2;ratioP2;P2;SDS_P1;SDS_P2;PMS_P1;PMS_P2;Temp;Humidity;BMP_temperature;BMP_pressure;BME280_temperature;BME280_humidity;BME280_pressure;Samples;Min_cycle;Max_cycle;Signal;HPM_P1;HPM_P2
2021/03/31 04:11:53;;;;;;;0.80;0.80;;;9.30;94.60;;;;;;5238765;23;20237;-73
2021/03/31 04:14:21;;;;;;;0.70;0.70;;;9.20;93.90;;;;;;4935411;29;20206;-76
2021/03/31 04:16:49;;;;;;;0.77;0.77;;;9.10;94.10;;;;;;4935154;29;20206;-74
2021/03/31 04:19:18;;;;;;;0.90;0.90;;;9.10;94.40;;;;;;4935155;29;20214;-76
2021/03/31 04:21:45;;;;;;;0.70;0.70;;;9.10;94.90;;;;;;4922894;29;20227;-75
2021/03/31 04:24:14;;;;;;;0.70;0.70;;;9.10;95.00;;;;;;4916695;29;20213;-75
2021/03/31 04:26:42;;;;;;;0.70;0.70;;;9.10;95.30;;;;;;4915976;29;20262;-76
2021/03/31 04:29:12;;;;;;;0.60;0.60;;;9.10;95.30;;;;;;4916145;29;20214;-76
2021/03/31 04:31:40;;;;;;;0.70;0.70;;;9.00;95.40;;;;;;4916025;29;20258;-76
2021/03/31 04:34:09;;;;;;;0.70;0.70;;;9.10;95.70;;;;;;4915810;29;20218;-75
2021/03/31 04:36:36;;;;;;;0.80;0.80;;;9.00;95.70;;;;;;4915903;29;20213;-74
2021/03/31 04:39:05;;;;;;;0.90;0.90;;;9.00;95.50;;;;;;4916069;29;20217;-75
2021/03/31 04:41:33;;;;;;;0.90;0.90;;;8.80;94.60;;;;;;4915762;29;20574;-77
2021/03/31 04:44:00;;;;;;;0.70;0.70;;;8.80;94.60;;;;;;4911359;29;20222;-75
2021/03/31 04:46:27;;;;;;;0.80;0.80;;;8.90;94.80;;;;;;4915219;29;20202;-76
2021/03/31 04:48:54;;;;;;;0.70;0.70;;;8.80;95.80;;;;;;4917135;29;20217;-76
2021/03/31 04:51:21;;;;;;;0.70;0.70;;;8.90;96.00;;;;;;4915780;29;20245;-74
2021/03/31 04:53:49;;;;;;;0.80;0.80;;;9.00;95.80;;;;;;4915698;29;20206;-74
2021/03/31 04:56:16;;;;;;;0.97;0.97;;;9.00;95.80;;;;;;4919167;29;20626;-75
2021/03/31 04:58:46;;;;;;;0.80;0.80;;;9.10;94.90;;;;;;4919505;29;20703;-75
2021/03/31 05:01:13;;;;;;;0.80;0.80;;;9.10;95.10;;;;;;4917684;29;20738;-75
2021/03/31 05:03:41;;;;;;;0.70;0.70;;;9.20;95.10;;;;;;4918660;29;20255;-76
2021/03/31 05:06:09;;;;;;;0.70;0.70;;;9.20;94.80;;;;;;4917428;29;20202;-74
2021/03/31 05:08:36;;;;;;;0.80;0.80;;;9.20;94.90;;;;;;4915374;29;20218;-75
2021/03/31 05:11:02;;;;;;;0.70;0.70;;;9.20;95.00;;;;;;4918406;29;20234;-76
2021/03/31 05:13:29;;;;;;;0.70;0.70;;;9.30;94.10;;;;;;4918060;29;20206;-75
2021/03/31 05:15:56;;;;;;;0.90;0.90;;;9.30;94.00;;;;;;4917882;29;20198;-75
2021/03/31 05:18:24;;;;;;;0.88;0.88;;;9.40;93.70;;;;;;4917668;29;20205;-74
2021/03/31 05:20:52;;;;;;;0.80;0.80;;;9.50;93.70;;;;;;4917991;29;20266;-76
2021/03/31 05:23:19;;;;;;;0.80;0.80;;;9.50;93.70;;;;;;4917882;29;20285;-74
2021/03/31 05:25:45;;;;;;;0.87;0.87;;;9.50;94.00;;;;;;4917841;29;20214;-73
2021/03/31 05:28:12;;;;;;;0.80;0.80;;;9.50;93.70;;;;;;4918084;29;20744;-76
2021/03/31 05:30:39;;;;;;;0.70;0.70;;;9.40;93.90;;;;;;4916898;29;20782;-74
2021/03/31 05:33:07;;;;;;;0.80;0.80;;;9.40;94.10;;;;;;4918668;29;20210;-77
2021/03/31 05:35:34;;;;;;;0.80;0.80;;;9.40;94.70;;;;;;4918983;29;20210;-78
2021/03/31 05:38:02;;;;;;;0.93;0.93;;;9.20;94.70;;;;;;4919580;29;20239;-77
2021/03/31 05:40:32;;;;;;;0.70;0.70;;;9.40;99.90;;;;;;4921262;29;20262;-77
2021/03/31 05:42:59;;;;;;;0.80;0.80;;;9.40;94.70;;;;;;4922328;29;20233;-77
2021/03/31 05:45:28;;;;;;;0.83;0.83;;;9.50;94.90;;;;;;4920927;29;20207;-76
2021/03/31 05:47:55;;;;;;;0.80;0.80;;;9.50;95.00;;;;;;4920343;29;20209;-77
2021/03/31 05:50:22;;;;;;;0.70;0.70;;;9.40;99.90;;;;;;4920805;29;20528;-77
2021/03/31 05:52:49;;;;;;;0.80;0.80;;;9.50;95.80;;;;;;4919248;29;20735;-77
2021/03/31 05:55:17;;;;;;;0.60;0.60;;;9.50;95.10;;;;;;4919529;29;20213;-77
2021/03/31 05:57:46;;;;;;;0.70;0.70;;;9.50;94.80;;;;;;4919998;29;20695;-76
2021/03/31 06:00:16;;;;;;;0.80;0.80;;;9.90;99.90;;;;;;4919973;29;20214;-76
2021/03/31 06:02:44;;;;;;;0.80;0.80;;;9.70;94.30;;;;;;4919878;29;20223;-77
2021/03/31 06:05:12;;;;;;;0.80;0.80;;;9.70;94.50;;;;;;4919433;29;20251;-77
2021/03/31 06:07:41;;;;;;;0.90;0.90;;;9.80;94.60;;;;;;4919729;29;20321;-76
2021/03/31 06:10:13;;;;;;;0.80;0.80;;;9.90;94.20;;;;;;4919776;29;20211;-77
2021/03/31 06:12:43;;;;;;;0.70;0.70;;;9.90;93.40;;;;;;4919768;29;20199;-77
2021/03/31 06:15:18;;;;;;;0.70;0.70;;;10.10;92.30;;;;;;4919005;29;20732;-77
2021/03/31 06:17:51;;;;;;;0.60;0.60;;;10.30;92.40;;;;;;4919293;29;20262;-76
2021/03/31 06:20:37;;;;;;;0.70;0.70;;;10.70;99.90;;;;;;4919310;29;20254;-77
2021/03/31 06:23:11;;;;;;;0.70;0.70;;;10.60;91.00;;;;;;4912424;29;20631;-77
2021/03/31 06:25:46;;;;;;;0.80;0.80;;;10.80;91.10;;;;;;4919636;29;20258;-76
2021/03/31 06:28:27;;;;;;;0.70;0.70;;;10.90;91.30;;;;;;4919422;29;20210;-76
2021/03/31 06:31:16;;;;;;;0.70;0.70;;;11.10;90.90;;;;;;4919257;29;20327;-77
2021/03/31 06:33:44;;;;;;;0.60;0.60;;;11.20;91.00;;;;;;4919284;29;20266;-77
2021/03/31 06:36:13;;;;;;;0.65;0.65;;;11.20;91.10;;;;;;4919091;29;20559;-77
2021/03/31 06:38:47;;;;;;;0.63;0.63;;;11.30;90.60;;;;;;4919071;29;20214;-77
2021/03/31 06:41:19;;;;;;;0.68;0.68;;;11.50;90.00;;;;;;4919265;29;20241;-77
2021/03/31 06:44:04;;;;;;;0.60;0.60;;;11.50;89.60;;;;;;4919080;29;20222;-77
2021/03/31 06:46:46;;;;;;;0.60;0.60;;;11.70;88.90;;;;;;4918775;29;20214;-77
2021/03/31 06:49:13;;;;;;;0.68;0.68;;;11.70;88.40;;;;;;4918953;29;20221;-77
2021/03/31 06:51:40;;;;;;;0.60;0.60;;;11.70;87.50;;;;;;4919400;29;20234;-78
2021/03/31 06:54:18;;;;;;;0.63;0.63;;;11.80;86.40;;;;;;4919890;29;20202;-78
2021/03/31 06:56:53;;;;;;;0.60;0.60;;;11.90;86.40;;;;;;4918696;29;20211;-77
2021/03/31 06:59:28;;;;;;;0.60;0.60;;;12.00;86.20;;;;;;4919118;29;20624;-77
2021/03/31 07:01:56;;;;;;;0.60;0.60;;;12.10;85.30;;;;;;4919198;29;20230;-77
2021/03/31 07:04:24;;;;;;;0.60;0.60;;;12.20;84.40;;;;;;4918634;29;20230;-77
2021/03/31 07:07:02;;;;;;;0.63;0.63;;;12.20;84.50;;;;;;4919305;29;20210;-77
2021/03/31 07:09:30;;;;;;;0.55;0.55;;;12.30;84.50;;;;;;4919513;29;20282;-77
2021/03/31 07:11:57;;;;;;;0.60;0.60;;;12.60;96.00;;;;;;4919091;29;20241;-77
2021/03/31 07:14:24;;;;;;;0.63;0.63;;;12.40;84.50;;;;;;4919401;29;20227;-78
2021/03/31 07:16:53;;;;;;;0.70;0.70;;;12.50;84.10;;;;;;4917983;29;20203;-78
2021/03/31 07:19:21;;;;;;;0.68;0.68;;;12.60;84.80;;;;;;4918384;29;20628;-76
2021/03/31 07:22:07;;;;;;;0.50;0.50;;;12.70;84.30;;;;;;4918184;29;20230;-77
2021/03/31 07:24:34;;;;;;;0.60;0.60;;;12.80;83.20;;;;;;4918154;29;20468;-77
2021/03/31 07:27:03;;;;;;;0.60;0.60;;;12.90;83.40;;;;;;4919333;29;20734;-77
2021/03/31 07:29:31;;;;;;;0.60;0.60;;;13.10;82.60;;;;;;4919232;29;20218;-77
2021/03/31 07:32:01;;;;;;;0.40;0.40;;;13.10;82.50;;;;;;4919162;29;20255;-77
2021/03/31 07:34:29;;;;;;;0.57;0.57;;;13.30;81.70;;;;;;4918700;29;20207;-77
2021/03/31 07:36:58;;;;;;;0.60;0.60;;;13.40;81.20;;;;;;4918825;29;20234;-77
2021/03/31 07:39:27;;;;;;;0.50;0.50;;;13.50;81.10;;;;;;4918833;29;20289;-77
2021/03/31 07:41:57;;;;;;;0.50;0.50;;;13.60;80.00;;;;;;4918902;29;20223;-77
2021/03/31 07:44:27;;;;;;;0.50;0.50;;;13.80;79.20;;;;;;4918835;29;20231;-77
2021/03/31 07:46:55;;;;;;;0.43;0.43;;;13.90;79.10;;;;;;4919017;29;20217;-77
2021/03/31 07:49:24;;;;;;;0.50;0.50;;;14.00;78.40;;;;;;4919349;29;20293;-78
2021/03/31 07:52:00;;;;;;;0.50;0.50;;;14.10;78.20;;;;;;4919349;29;20231;-78
2021/03/31 07:54:27;;;;;;;0.40;0.40;;;14.30;77.80;;;;;;4919818;29;20273;-77
2021/03/31 07:56:55;;;;;;;0.40;0.40;;;14.40;77.40;;;;;;4919517;29;20217;-78
2021/03/31 07:59:22;;;;;;;0.50;0.50;;;14.50;76.90;;;;;;4918755;29;20262;-77
2021/03/31 08:01:50;;;;;;;0.50;0.50;;;14.70;75.60;;;;;;4918565;29;20282;-78
2021/03/31 08:04:19;;;;;;;0.40;0.40;;;14.80;74.50;;;;;;4919568;29;20230;-78
2021/03/31 08:06:50;;;;;;;0.40;0.40;;;14.80;73.80;;;;;;4919723;29;20213;-76
2021/03/31 08:09:22;;;;;;;0.40;0.40;;;15.00;73.30;;;;;;4919880;29;20231;-77
2021/03/31 08:12:01;;;;;;;0.40;0.40;;;15.20;88.50;;;;;;4920315;29;20246;-77
2021/03/31 08:14:46;;;;;;;0.40;0.40;;;15.50;89.10;;;;;;4919796;29;20715;-77
2021/03/31 08:17:33;;;;;;;0.40;0.40;;;15.30;72.50;;;;;;4920039;29;20238;-77
2021/03/31 08:20:00;;;;;;;0.40;0.40;;;15.50;71.80;;;;;;4921203;29;20238;-76
2021/03/31 08:22:43;;;;;;;0.40;0.40;;;15.90;87.20;;;;;;4919969;29;20223;-78
2021/03/31 08:25:18;;;;;;;0.30;0.30;;;15.80;70.30;;;;;;4918859;29;20206;-78
2021/03/31 08:28:03;;;;;;;0.40;0.40;;;16.00;86.80;;;;;;4920183;29;20210;-78
2021/03/31 08:30:32;;;;;;;0.40;0.40;;;16.30;85.40;;;;;;4919163;29;20211;-76
2021/03/31 08:32:59;;;;;;;0.40;0.40;;;16.20;69.60;;;;;;4920010;29;20241;-78
2021/03/31 08:35:28;;;;;;;0.50;0.50;;;16.30;68.00;;;;;;4919655;29;20207;-78
2021/03/31 08:37:56;;;;;;;0.50;0.50;;;16.30;68.30;;;;;;4919488;29;20266;-77
2021/03/31 08:40:29;;;;;;;0.30;0.30;;;16.50;84.30;;;;;;4919506;29;20214;-78
2021/03/31 08:43:04;;;;;;;0.30;0.30;;;16.50;67.20;;;;;;4918487;29;20321;-77
2021/03/31 08:45:34;;;;;;;0.30;0.30;;;16.70;67.90;;;;;;4915709;29;20202;-77
2021/03/31 08:48:01;;;;;;;0.45;0.45;;;16.70;67.90;;;;;;4915710;29;20210;-76
2021/03/31 08:50:34;;;;;;;0.35;0.35;;;16.80;83.70;;;;;;4915866;29;20206;-77
2021/03/31 08:53:04;;;;;;;0.30;0.30;;;16.90;67.60;;;;;;4915961;29;20214;-77
2021/03/31 08:55:35;;;;;;;0.40;0.40;;;17.10;67.40;;;;;;4915737;29;20209;-77
2021/03/31 08:58:05;;;;;;;0.30;0.30;;;17.20;67.40;;;;;;4915883;29;20206;-77
2021/03/31 09:00:45;;;;;;;0.30;0.30;;;17.30;66.80;;;;;;4915723;29;20253;-76
2021/03/31 09:03:13;;;;;;;0.38;0.38;;;17.30;67.60;;;;;;4916130;29;20281;-77
2021/03/31 09:05:40;;;;;;;0.30;0.30;;;17.40;66.70;;;;;;4915847;29;20234;-77
2021/03/31 09:08:08;;;;;;;0.40;0.40;;;17.60;66.80;;;;;;4916195;29;20238;-77
2021/03/31 09:10:57;;;;;;;0.40;0.40;;;17.60;66.30;;;;;;4915424;29;20234;-77
2021/03/31 09:13:29;;;;;;;0.30;0.30;;;17.70;82.10;;;;;;4915669;29;20206;-76
2021/03/31 09:15:57;;;;;;;0.30;0.30;;;17.70;65.50;;;;;;4915388;29;20207;-76
2021/03/31 09:18:25;;;;;;;0.40;0.40;;;17.90;64.70;;;;;;4915439;29;20258;-77
2021/03/31 09:20:52;;;;;;;0.40;0.40;;;18.00;64.60;;;;;;4915437;29;20645;-77
2021/03/31 09:23:21;;;;;;;0.40;0.40;;;18.20;64.70;;;;;;4915369;29;20302;-77
2021/03/31 09:26:00;;;;;;;0.20;0.20;;;18.30;64.00;;;;;;4914880;29;20664;-77
2021/03/31 09:28:28;;;;;;;0.30;0.30;;;18.40;63.30;;;;;;4915673;29;20245;-77
2021/03/31 09:31:00;;;;;;;0.30;0.30;;;18.50;64.00;;;;;;4915289;29;20226;-77
2021/03/31 09:33:32;;;;;;;0.40;0.40;;;18.60;62.80;;;;;;4915380;29;20202;-76
2021/03/31 09:36:14;;;;;;;0.30;0.30;;;18.60;61.60;;;;;;4915087;29;20284;-77
2021/03/31 09:38:55;;;;;;;0.30;0.30;;;18.80;62.30;;;;;;4915401;29;20210;-77
2021/03/31 09:41:25;;;;;;;0.30;0.30;;;18.90;61.90;;;;;;4916764;29;20274;-76
2021/03/31 09:43:52;;;;;;;0.30;0.30;;;19.10;61.50;;;;;;4918205;29;20222;-75
2021/03/31 09:46:23;;;;;;;0.30;0.30;;;19.20;60.60;;;;;;4917883;29;20210;-75
2021/03/31 09:48:51;;;;;;;0.30;0.30;;;19.20;59.30;;;;;;4918512;29;20265;-76
2021/03/31 09:51:18;;;;;;;0.30;0.30;;;19.40;59.70;;;;;;4917940;29;20226;-75
2021/03/31 09:53:45;;;;;;;0.20;0.20;;;19.40;58.00;;;;;;4917903;29;20289;-75
2021/03/31 09:56:15;;;;;;;0.20;0.20;;;19.50;57.80;;;;;;4917376;29;20211;-76
2021/03/31 09:58:46;;;;;;;0.30;0.30;;;19.60;57.80;;;;;;4917871;29;20245;-75
2021/03/31 10:01:14;;;;;;;0.20;0.20;;;19.70;57.00;;;;;;4917708;29;20273;-75
2021/03/31 10:03:42;;;;;;;0.30;0.30;;;;;;;;;;4917689;29;20237;-75
2021/03/31 10:06:24;;;;;;;0.20;0.20;;;19.00;93.20;;;;;;4917390;29;20209;-75
2021/03/31 10:08:52;;;;;;;0.20;0.20;;;20.10;56.30;;;;;;4917699;29;20206;-75
2021/03/31 10:11:27;;;;;;;0.20;0.20;;;;;;;;;;4917363;29;20290;-75
2021/03/31 10:13:54;;;;;;;0.30;0.30;;;20.30;82.60;;;;;;4917516;29;20250;-75
2021/03/31 10:16:31;;;;;;;0.20;0.20;;;20.20;82.40;;;;;;4917390;29;20233;-74
2021/03/31 10:18:58;;;;;;;0.20;0.20;;;20.40;56.00;;;;;;4917578;29;20210;-74
2021/03/31 10:21:30;;;;;;;0.30;0.30;;;20.40;56.60;;;;;;4917340;29;20226;-74
2021/03/31 10:23:57;;;;;;;0.20;0.20;;;20.50;55.60;;;;;;4917815;29;20711;-74
2021/03/31 10:26:48;;;;;;;0.20;0.20;;;20.60;55.50;;;;;;4917226;29;20222;-74
2021/03/31 10:29:36;;;;;;;0.28;0.28;;;20.70;55.30;;;;;;4917233;29;20245;-75
2021/03/31 10:32:24;;;;;;;0.20;0.20;;;20.80;54.60;;;;;;4917047;29;20527;-75
2021/03/31 10:34:52;;;;;;;0.30;0.30;;;20.80;54.90;;;;;;4917115;29;20202;-75
2021/03/31 10:37:27;;;;;;;0.20;0.20;;;20.90;55.00;;;;;;4917255;29;20217;-75
2021/03/31 10:48:55;;;;;;;0.20;0.20;;;21.50;52.90;;;;;;4917596;29;20683;-75
2021/03/31 10:51:29;;;;;;;0.20;0.20;;;21.50;52.40;;;;;;4916756;29;20665;-75
2021/03/31 10:54:01;;;;;;;0.20;0.20;;;21.50;52.50;;;;;;4916643;29;20266;-75
2021/03/31 10:56:29;;;;;;;0.20;0.20;;;21.60;52.40;;;;;;4916692;29;20281;-75
2021/03/31 10:58:57;;;;;;;0.20;0.20;;;21.60;52.80;;;;;;4916948;29;20203;-75
2021/03/31 11:01:24;;;;;;;0.20;0.20;;;21.70;52.50;;;;;;4916552;29;20246;-75
2021/03/31 11:03:50;;;;;;;0.20;0.20;;;21.80;51.90;;;;;;4916876;29;20227;-75
2021/03/31 11:06:17;;;;;;;0.20;0.20;;;21.80;52.10;;;;;;4916565;29;20298;-75
2021/03/31 11:08:44;;;;;;;0.20;0.20;;;21.90;51.10;;;;;;4917068;29;20635;-75
2021/03/31 11:11:11;;;;;;;0.20;0.20;;;22.00;52.00;;;;;;4916735;29;20239;-75
2021/03/31 11:13:38;;;;;;;0.20;0.20;;;22.10;51.80;;;;;;4916768;29;20211;-75
2021/03/31 11:16:08;;;;;;;0.20;0.20;;;22.10;51.70;;;;;;4916104;29;20676;-75
2021/03/31 11:18:49;;;;;;;0.20;0.20;;;22.10;52.20;;;;;;4916566;29;20211;-76
2021/03/31 11:26:53;;;;;;;0.20;0.20;;;22.30;52.40;;;;;;4916148;29;20214;-76
2021/03/31 11:29:20;;;;;;;0.20;0.20;;;22.70;52.70;;;;;;4916412;29;20215;-76
2021/03/31 11:31:47;;;;;;;0.20;0.20;;;22.30;52.70;;;;;;4916164;29;20242;-76
2021/03/31 11:34:14;;;;;;;0.30;0.30;;;22.40;52.20;;;;;;4916247;29;20211;-76
2021/03/31 11:36:41;;;;;;;0.20;0.20;;;22.40;53.00;;;;;;4915810;29;20258;-76
2021/03/31 11:39:08;;;;;;;0.20;0.20;;;22.40;52.80;;;;;;4915933;29;20259;-76
2021/03/31 11:41:35;;;;;;;0.20;0.20;;;22.40;52.90;;;;;;4916055;29;20234;-76
2021/03/31 11:44:03;;;;;;;0.25;0.25;;;22.30;52.60;;;;;;4915908;29;20226;-76
2021/03/31 11:46:29;;;;;;;0.20;0.20;;;22.30;53.30;;;;;;4915849;29;20267;-76
2021/03/31 11:48:57;;;;;;;0.20;0.20;;;22.40;52.60;;;;;;4915713;29;20207;-76
2021/03/31 11:51:24;;;;;;;0.20;0.20;;;22.40;52.80;;;;;;4915783;29;20599;-76
2021/03/31 11:53:51;;;;;;;0.20;0.20;;;22.50;53.40;;;;;;4915772;29;20247;-76
2021/03/31 11:56:18;;;;;;;0.20;0.20;;;22.60;53.00;;;;;;4915788;29;20594;-76
2021/03/31 11:58:45;;;;;;;0.10;0.10;;;22.70;52.50;;;;;;4915760;29;20207;-76
2021/03/31 12:01:12;;;;;;;0.20;0.20;;;;;;;;;;4915778;29;20231;-76
2021/03/31 12:03:39;;;;;;;0.20;0.20;;;22.90;52.10;;;;;;4915677;29;20635;-76
2021/03/31 12:06:06;;;;;;;0.20;0.20;;;22.90;53.30;;;;;;4915772;29;20234;-76
2021/03/31 12:08:33;;;;;;;0.10;0.10;;;22.80;53.10;;;;;;4916002;29;20627;-76
2021/03/31 12:11:01;;;;;;;0.20;0.20;;;22.80;53.50;;;;;;4915701;29;20257;-76
2021/03/31 12:13:29;;;;;;;0.10;0.10;;;22.80;53.60;;;;;;4915667;29;20270;-76
2021/03/31 12:15:56;;;;;;;0.20;0.20;;;22.80;53.80;;;;;;4915891;29;20206;-76
2021/03/31 12:18:23;;;;;;;0.10;0.10;;;;;;;;;;4915526;29;20274;-75
2021/03/31 12:20:51;;;;;;;0.20;0.20;;;22.90;52.90;;;;;;4915725;29;20226;-78
2021/03/31 12:23:18;;;;;;;0.10;0.10;;;22.90;54.50;;;;;;4915408;29;20645;-75
2021/03/31 12:25:47;;;;;;;0.20;0.20;;;;;;;;;;4915062;29;20619;-75
2021/03/31 12:28:15;;;;;;;0.20;0.20;;;22.90;54.70;;;;;;4915262;29;20285;-75
2021/03/31 12:30:42;;;;;;;0.10;0.10;;;23.00;54.60;;;;;;4915385;29;20728;-74
2021/03/31 12:33:08;;;;;;;0.20;0.20;;;23.10;54.20;;;;;;4915046;29;20210;-75
2021/03/31 12:35:35;;;;;;;0.20;0.20;;;23.20;54.00;;;;;;4915224;29;20214;-75
2021/03/31 12:38:02;;;;;;;0.20;0.20;;;23.20;53.30;;;;;;4915009;29;20972;-75
2021/03/31 12:40:30;;;;;;;0.10;0.10;;;23.40;66.10;;;;;;4914946;29;20207;-75
2021/03/31 12:42:57;;;;;;;0.20;0.20;;;23.20;66.60;;;;;;4915074;29;20263;-75
2021/03/31 12:45:24;;;;;;;0.10;0.10;;;23.20;53.10;;;;;;4914832;29;20676;-75
2021/03/31 12:47:51;;;;;;;0.10;0.10;;;23.30;53.10;;;;;;4915347;29;20262;-75
2021/03/31 12:50:20;;;;;;;0.17;0.17;;;23.30;65.80;;;;;;4914948;29;20210;-75
2021/03/31 12:52:50;;;;;;;0.20;0.20;;;23.30;52.60;;;;;;4914995;29;20262;-75
2021/03/31 12:55:19;;;;;;;0.10;0.10;;;23.30;52.10;;;;;;4915075;29;20581;-75
2021/03/31 12:57:48;;;;;;;0.20;0.20;;;23.40;52.30;;;;;;4915019;29;20206;-75
2021/03/31 13:00:17;;;;;;;0.20;0.20;;;23.70;65.20;;;;;;4914758;29;20240;-75
2021/03/31 13:03:04;;;;;;;0.15;0.15;;;23.60;51.60;;;;;;4914922;29;20656;-75
2021/03/31 13:05:51;;;;;;;0.20;0.20;;;23.70;51.40;;;;;;4914953;29;20213;-76
2021/03/31 13:08:18;;;;;;;0.20;0.20;;;23.80;50.70;;;;;;4914958;29;20210;-75
2021/03/31 13:11:05;;;;;;;0.17;0.17;;;23.80;51.20;;;;;;4914861;29;20234;-75
2021/03/31 13:13:56;;;;;;;0.20;0.20;;;23.90;50.90;;;;;;4915189;29;20697;-75
2021/03/31 13:16:47;;;;;;;0.20;0.20;;;24.00;50.60;;;;;;4917632;29;20301;-75
2021/03/31 13:22:48;;;;;;;0.10;0.10;;;23.80;49.60;;;;;;4918517;29;20224;-75
2021/03/31 13:25:20;;;;;;;0.10;0.10;;;23.90;49.90;;;;;;4918295;29;20278;-75
2021/03/31 13:30:35;;;;;;;0.20;0.20;;;24.00;61.40;;;;;;4919690;29;20569;-76
2021/03/31 13:33:06;;;;;;;0.10;0.10;;;24.00;49.80;;;;;;4920952;29;20231;-77
2021/03/31 13:35:36;;;;;;;0.20;0.20;;;24.20;49.10;;;;;;4918383;29;20207;-77
2021/03/31 13:38:09;;;;;;;0.20;0.20;;;24.20;49.20;;;;;;4918657;29;20246;-74
2021/03/31 13:40:36;;;;;;;0.20;0.20;;;24.30;48.50;;;;;;4918548;29;20237;-75
2021/03/31 13:43:03;;;;;;;0.20;0.20;;;24.30;48.60;;;;;;4918207;29;20672;-74
2021/03/31 13:45:31;;;;;;;0.20;0.20;;;24.40;48.80;;;;;;4917966;29;20226;-74
2021/03/31 13:48:09;;;;;;;0.20;0.20;;;24.50;48.50;;;;;;4918095;29;20217;-75
2021/03/31 13:50:56;;;;;;;0.10;0.10;;;24.70;48.40;;;;;;4917973;29;20309;-75
2021/03/31 13:53:41;;;;;;;0.10;0.10;;;24.80;47.60;;;;;;4918122;29;20290;-76
2021/03/31 13:56:14;;;;;;;0.10;0.10;;;24.80;48.10;;;;;;4917795;29;20258;-75
2021/03/31 13:58:55;;;;;;;0.13;0.13;;;25.00;47.40;;;;;;4919355;29;20608;-76
2021/03/31 14:01:23;;;;;;;0.10;0.10;;;25.10;47.90;;;;;;4918353;29;20582;-76
2021/03/31 14:04:10;;;;;;;0.10;0.10;;;;;;;;;;4918108;29;20241;-75
2021/03/31 14:06:57;;;;;;;0.20;0.20;;;;;;;;;;4917834;29;20674;-76
2021/03/31 14:09:25;;;;;;;0.10;0.10;;;25.10;46.50;;;;;;4917853;29;20214;-75
2021/03/31 14:12:12;;;;;;;0.10;0.10;;;25.00;47.60;;;;;;4917627;29;20323;-76
2021/03/31 14:15:00;;;;;;;0.10;0.10;;;25.10;47.80;;;;;;4917637;29;20214;-75
2021/03/31 14:17:27;;;;;;;0.10;0.10;;;25.10;48.20;;;;;;4917422;29;20220;-75
2021/03/31 14:19:57;;;;;;;0.20;0.20;;;24.90;47.80;;;;;;4917362;29;20771;-75
2021/03/31 14:22:24;;;;;;;0.10;0.10;;;24.80;48.00;;;;;;4917530;29;20290;-75
2021/03/31 14:24:52;;;;;;;0.10;0.10;;;24.70;48.60;;;;;;4917344;29;20226;-75
2021/03/31 14:27:26;;;;;;;0.10;0.10;;;24.70;48.10;;;;;;4916227;29;20205;-75
2021/03/31 14:30:16;;;;;;;0.10;0.10;;;25.00;58.70;;;;;;4917361;29;20553;-75
2021/03/31 14:32:43;;;;;;;0.15;0.15;;;25.10;47.50;;;;;;4917476;29;20290;-75
2021/03/31 14:35:30;;;;;;;0.10;0.10;;;25.20;46.90;;;;;;4917201;29;20206;-75
2021/03/31 14:38:17;;;;;;;0.10;0.10;;;25.10;46.90;;;;;;4917075;29;20293;-75
2021/03/31 14:41:04;;;;;;;0.20;0.20;;;25.20;46.80;;;;;;4917301;29;20266;-76
2021/03/31 14:43:31;;;;;;;0.10;0.10;;;25.20;47.00;;;;;;4916970;29;20681;-75
2021/03/31 14:46:18;;;;;;;0.20;0.20;;;25.20;47.30;;;;;;4916746;29;20698;-75
2021/03/31 14:49:08;;;;;;;0.20;0.20;;;24.90;47.40;;;;;;4917120;29;20228;-74
2021/03/31 14:57:15;;;;;;;0.20;0.20;;;24.90;47.40;;;;;;4912754;29;20195;-74
2021/03/31 14:59:44;;;;;;;0.20;0.20;;;25.00;47.20;;;;;;4916853;29;20652;-75
2021/03/31 15:02:12;;;;;;;0.10;0.10;;;25.00;47.30;;;;;;4916762;29;20219;-75
2021/03/31 15:04:42;;;;;;;0.20;0.20;;;25.20;47.90;;;;;;4916724;29;20229;-74
2021/03/31 15:07:09;;;;;;;0.20;0.20;;;25.10;47.10;;;;;;4916795;29;20563;-74
2021/03/31 15:09:36;;;;;;;0.20;0.20;;;25.10;47.60;;;;;;4916551;29;20648;-75
2021/03/31 15:12:05;;;;;;;0.10;0.10;;;25.00;47.40;;;;;;4916399;29;20243;-75
2021/03/31 15:14:32;;;;;;;0.20;0.20;;;24.80;47.00;;;;;;4916502;29;20301;-74
2021/03/31 15:17:19;;;;;;;0.13;0.13;;;25.00;47.40;;;;;;4916472;29;20293;-74
2021/03/31 15:19:52;;;;;;;0.20;0.20;;;25.00;47.70;;;;;;4918563;29;20207;-78
2021/03/31 15:22:36;;;;;;;0.10;0.10;;;25.10;47.70;;;;;;4919759;29;20278;-79
2021/03/31 15:25:03;;;;;;;0.10;0.10;;;25.10;47.10;;;;;;4919160;29;20242;-78
2021/03/31 15:27:50;;;;;;;0.10;0.10;;;25.10;47.90;;;;;;4921338;29;20246;-78
2021/03/31 15:30:37;;;;;;;0.20;0.20;;;25.20;48.10;;;;;;4920383;29;20310;-80
2021/03/31 15:33:18;;;;;;;0.10;0.10;;;25.20;47.50;;;;;;4923767;29;20191;-80
2021/03/31 15:35:50;;;;;;;0.20;0.20;;;25.20;48.30;;;;;;4925238;29;20650;-79
2021/03/31 15:38:22;;;;;;;0.20;0.20;;;25.10;48.10;;;;;;4924352;29;20214;-79
2021/03/31 15:40:55;;;;;;;0.20;0.20;;;25.00;47.60;;;;;;4921978;29;20289;-80
2021/03/31 15:43:30;;;;;;;0.10;0.10;;;24.90;47.90;;;;;;4921012;29;20213;-80
2021/03/31 15:46:02;;;;;;;0.10;0.10;;;24.80;48.40;;;;;;4918249;29;20206;-79
2021/03/31 15:48:35;;;;;;;0.20;0.20;;;24.80;48.30;;;;;;4918259;29;20238;-78
2021/03/31 15:51:07;;;;;;;0.10;0.10;;;24.80;48.60;;;;;;4918762;29;20222;-79
2021/03/31 15:53:39;;;;;;;0.10;0.10;;;24.80;48.40;;;;;;4916329;29;20585;-78
2021/03/31 15:56:11;;;;;;;0.20;0.20;;;24.90;48.10;;;;;;4915614;29;20274;-79
2021/03/31 15:58:43;;;;;;;0.10;0.10;;;24.80;48.60;;;;;;4916043;29;20207;-79
2021/03/31 16:01:15;;;;;;;0.10;0.10;;;24.70;48.90;;;;;;4917033;29;20262;-80
2021/03/31 16:03:50;;;;;;;0.15;0.15;;;24.70;48.80;;;;;;4917804;29;20207;-80
2021/03/31 16:07:29;;;;;;;0.10;0.10;;;24.70;48.80;;;;;;4918474;29;20261;-81
2021/03/31 16:09:15;;;;;;;0.10;0.10;;;24.60;48.50;;;;;;4918725;29;20219;-79
2021/03/31 16:11:46;;;;;;;0.10;0.10;;;24.50;48.60;;;;;;4917603;29;20286;-79
2021/03/31 16:14:18;;;;;;;0.20;0.20;;;24.50;48.50;;;;;;4918099;29;20871;-78
2021/03/31 16:16:50;;;;;;;0.10;0.10;;;24.40;48.50;;;;;;4917471;29;20680;-79
2021/03/31 16:19:22;;;;;;;0.10;0.10;;;24.50;47.90;;;;;;4918539;29;20241;-79
2021/03/31 16:21:55;;;;;;;0.20;0.20;;;24.50;48.00;;;;;;4918606;29;20230;-79
2021/03/31 16:24:27;;;;;;;0.20;0.20;;;24.60;48.00;;;;;;4916477;29;20226;-75
2021/03/31 16:26:58;;;;;;;0.10;0.10;;;24.70;49.30;;;;;;4914874;29;20202;-75
2021/03/31 16:29:32;;;;;;;0.10;0.10;;;24.60;48.60;;;;;;4915242;29;20257;-75
2021/03/31 16:32:04;;;;;;;0.10;0.10;;;24.60;47.70;;;;;;4915186;29;20223;-76
2021/03/31 16:34:36;;;;;;;0.20;0.20;;;24.50;48.00;;;;;;4915170;29;20206;-75
2021/03/31 16:37:08;;;;;;;0.10;0.10;;;24.40;47.30;;;;;;4915111;29;20247;-75
2021/03/31 16:39:40;;;;;;;0.10;0.10;;;24.30;47.50;;;;;;4915301;29;20210;-76
2021/03/31 16:42:12;;;;;;;0.10;0.10;;;24.20;48.00;;;;;;4915163;29;20227;-74
2021/03/31 16:44:46;;;;;;;0.10;0.10;;;24.20;48.20;;;;;;4914956;29;20222;-72
2021/03/31 16:47:18;;;;;;;0.10;0.10;;;24.10;48.20;;;;;;4915008;29;20206;-76
2021/03/31 16:49:50;;;;;;;0.20;0.20;;;24.00;48.50;;;;;;4914145;29;20207;-76
2021/03/31 16:52:23;;;;;;;0.20;0.20;;;24.00;47.90;;;;;;4915157;29;20282;-76
2021/03/31 16:54:54;;;;;;;0.20;0.20;;;23.80;48.30;;;;;;4915466;29;20207;-75
2021/03/31 16:57:26;;;;;;;0.20;0.20;;;23.80;48.40;;;;;;4914710;29;20206;-75
2021/03/31 16:59:58;;;;;;;0.20;0.20;;;23.60;47.80;;;;;;4913994;29;20633;-75
2021/03/31 17:02:30;;;;;;;0.20;0.20;;;23.60;48.50;;;;;;4914474;29;20744;-75
2021/03/31 17:05:03;;;;;;;0.10;0.10;;;23.40;48.10;;;;;;4913422;29;20206;-75
2021/03/31 17:07:35;;;;;;;0.10;0.10;;;23.30;48.20;;;;;;4914054;29;20222;-75
2021/03/31 17:10:10;;;;;;;0.10;0.10;;;23.10;48.50;;;;;;4913419;29;20210;-75
2021/03/31 17:12:42;;;;;;;0.20;0.20;;;;;;;;;;4916080;29;20205;-76
2021/03/31 17:15:15;;;;;;;0.10;0.10;;;22.90;48.70;;;;;;4915235;29;20199;-76
2021/03/31 17:17:47;;;;;;;0.17;0.17;;;22.80;48.90;;;;;;4915039;29;20303;-75
2021/03/31 17:20:20;;;;;;;0.20;0.20;;;;;;;;;;4916130;29;20195;-76
2021/03/31 17:22:52;;;;;;;0.20;0.20;;;22.60;48.50;;;;;;4914664;29;20270;-76
2021/03/31 17:25:24;;;;;;;0.20;0.20;;;22.40;71.80;;;;;;4914898;29;20223;-76
2021/03/31 17:27:56;;;;;;;0.10;0.10;;;22.50;49.50;;;;;;4915141;29;20210;-76
2021/03/31 17:30:28;;;;;;;0.10;0.10;;;22.30;85.50;;;;;;4913945;29;20262;-76
2021/03/31 17:33:00;;;;;;;0.20;0.20;;;22.30;53.30;;;;;;4914081;29;20215;-75
2021/03/31 17:35:32;;;;;;;0.20;0.20;;;22.20;54.80;;;;;;4913881;29;20258;-76
2021/03/31 17:38:07;;;;;;;0.20;0.20;;;22.00;55.10;;;;;;4914075;29;20207;-77
2021/03/31 17:40:39;;;;;;;0.20;0.20;;;21.90;55.70;;;;;;4913646;29;20282;-76
2021/03/31 17:43:11;;;;;;;0.20;0.20;;;21.70;57.80;;;;;;4902521;29;20223;-76
2021/03/31 17:45:43;;;;;;;0.20;0.20;;;21.50;57.70;;;;;;4913694;29;20222;-77
2021/03/31 17:48:11;;;;;;;0.20;0.20;;;21.30;57.50;;;;;;4914126;29;20286;-76
2021/03/31 17:50:44;;;;;;;0.20;0.20;;;21.20;58.60;;;;;;4913623;29;20218;-76